Terminal Aerodrome Forecast
Issued by NWS

Current Version | Previous Version | Text Only | Print | Product List | Glossary On
Versions: 1 2 3 4 5 6 7 8 9 10 11 12 13 14 15 16 17 18 19 20
000
FTUS41 KBTV 242335 AAB
TAFRUT
TAF AMD
KRUT 242335Z 2500/2524 03004KT P6SM SCT035 BKN200
     FM250900 13012G19KT P6SM VCSH OVC100
     FM251100 12017G26KT 5SM -SNPL BR OVC050
     FM251300 12021G32KT 1SM -SNPL BR OVC020
     FM251600 12024G35KT 2SM -FZRAPL BR OVC010
     FM251900 13021G30KT 3SM -RA BR OVC015=

USA.gov is the U.S. government's official web portal to all federal, state and local government web resources and services.